createdAt,value
2018-08-17T00:02:00.155Z,14.20
2018-08-17T00:04:28.315Z,13.23
2018-08-17T00:06:56.311Z,13.40
2018-08-17T00:09:24.317Z,13.93
2018-08-17T00:11:52.531Z,13.77
2018-08-17T00:14:20.546Z,12.37
2018-08-17T00:16:48.540Z,14.10
2018-08-17T00:19:16.667Z,14.00
2018-08-17T00:21:44.712Z,13.60
2018-08-17T00:24:12.880Z,14.20
2018-08-17T00:26:40.925Z,13.70
2018-08-17T00:29:08.974Z,13.50
2018-08-17T00:31:37.164Z,13.57
2018-08-17T00:34:05.269Z,13.57
2018-08-17T00:36:33.396Z,14.43
2018-08-17T00:39:01.439Z,13.67
2018-08-17T00:41:29.643Z,13.50
2018-08-17T00:43:57.691Z,14.60
2018-08-17T00:46:25.681Z,13.97
2018-08-17T00:48:53.719Z,13.90
2018-08-17T00:51:21.783Z,14.25
2018-08-17T00:53:49.907Z,14.37
2018-08-17T00:56:18.065Z,14.27
2018-08-17T00:58:46.059Z,14.30
2018-08-17T01:01:14.089Z,14.23
2018-08-17T01:03:42.095Z,14.23
2018-08-17T01:06:10.145Z,14.40
2018-08-17T01:08:38.271Z,14.40
2018-08-17T01:11:06.365Z,14.07
2018-08-17T01:13:35.333Z,14.80
2018-08-17T01:16:03.405Z,15.20
2018-08-17T01:18:31.455Z,13.60
2018-08-17T01:20:59.511Z,15.20
2018-08-17T01:23:27.570Z,15.73
2018-08-17T01:25:55.546Z,16.73
2018-08-17T01:28:24.277Z,15.80
2018-08-17T01:30:52.348Z,16.60
2018-08-17T01:33:20.524Z,13.80
2018-08-17T01:35:48.672Z,17.90
2018-08-17T01:38:16.861Z,17.50
2018-08-17T01:40:44.919Z,17.20
2018-08-17T01:43:12.956Z,18.70
2018-08-17T01:45:41.037Z,17.43
2018-08-17T01:48:09.096Z,18.10
2018-08-17T01:50:37.167Z,16.97
2018-08-17T01:53:06.177Z,17.33
2018-08-17T01:55:34.257Z,16.57
2018-08-17T01:58:02.436Z,16.77
2018-08-17T02:00:30.504Z,17.33
2018-08-17T02:02:58.579Z,16.60
2018-08-17T02:05:26.620Z,15.68
2018-08-17T02:07:54.714Z,17.17
2018-08-17T02:10:22.765Z,18.13
2018-08-17T02:12:50.832Z,17.50
2018-08-17T02:15:18.848Z,16.30
2018-08-17T02:17:47.000Z,15.90
2018-08-17T02:20:15.072Z,17.67
2018-08-17T02:22:43.164Z,17.60
2018-08-17T02:25:11.195Z,18.37
2018-08-17T02:27:39.327Z,16.60
2018-08-17T02:30:07.611Z,16.20
2018-08-17T02:32:35.655Z,19.63
2018-08-17T02:35:04.019Z,19.23
2018-08-17T02:37:32.101Z,18.50
2018-08-17T02:40:00.183Z,18.23
2018-08-17T02:42:28.305Z,19.47
2018-08-17T02:44:56.355Z,18.10
2018-08-17T02:47:24.393Z,17.83
2018-08-17T02:49:52.445Z,18.43
2018-08-17T02:52:20.548Z,17.80
2018-08-17T02:54:48.578Z,17.90
2018-08-17T02:57:16.631Z,18.37
2018-08-17T02:59:44.657Z,18.00
2018-08-17T03:02:12.693Z,18.00
2018-08-17T03:04:40.782Z,17.73
2018-08-17T03:07:08.854Z,17.73
2018-08-17T03:09:37.812Z,17.57
2018-08-17T03:12:05.922Z,17.80
2018-08-17T03:14:33.976Z,18.27
2018-08-17T03:17:02.080Z,18.30
2018-08-17T03:19:30.118Z,17.40
2018-08-17T03:21:58.120Z,18.43
2018-08-17T03:24:26.171Z,18.90
2018-08-17T03:26:54.258Z,18.70
2018-08-17T03:29:22.416Z,19.90
2018-08-17T03:31:50.483Z,18.47
2018-08-17T03:34:18.505Z,19.00
2018-08-17T03:36:46.556Z,20.37
2018-08-17T03:39:14.599Z,20.77
2018-08-17T03:41:42.644Z,20.27
2018-08-17T03:44:10.736Z,19.10
2018-08-17T03:46:38.757Z,19.80
2018-08-17T03:49:06.783Z,18.77
2018-08-17T03:51:34.956Z,19.00
2018-08-17T03:54:03.130Z,18.50
2018-08-17T03:56:31.126Z,16.93
2018-08-17T03:58:59.225Z,17.63
2018-08-17T04:01:27.302Z,18.27
2018-08-17T04:03:55.498Z,17.80
2018-08-17T04:06:23.536Z,18.47
2018-08-17T04:08:51.585Z,17.43
2018-08-17T04:11:19.590Z,17.97
2018-08-17T04:13:47.628Z,17.27
2018-08-17T04:16:15.702Z,18.32
2018-08-17T04:18:49.280Z,18.60
2018-08-17T04:21:17.556Z,19.12
2018-08-17T04:23:45.693Z,18.23
2018-08-17T04:26:13.642Z,19.87
2018-08-17T04:28:41.691Z,19.47
2018-08-17T04:31:09.728Z,18.43
2018-08-17T04:33:37.885Z,19.60
2018-08-17T04:36:06.029Z,18.30
2018-08-17T04:38:34.260Z,18.63
2018-08-17T04:41:02.378Z,18.80
2018-08-17T04:43:30.444Z,18.60
2018-08-17T04:45:58.482Z,18.00
2018-08-17T04:48:26.652Z,19.87
2018-08-17T04:50:54.760Z,18.23
2018-08-17T04:53:22.796Z,19.97
2018-08-17T04:55:50.856Z,19.73
2018-08-17T04:58:18.915Z,19.43
2018-08-17T05:00:46.975Z,18.42
2018-08-17T05:03:15.030Z,20.20
2018-08-17T05:05:43.080Z,19.97
2018-08-17T05:08:11.308Z,19.93
2018-08-17T05:10:40.148Z,20.40
2018-08-17T05:13:08.270Z,21.60
2018-08-17T05:15:37.601Z,20.73
2018-08-17T05:18:05.908Z,21.67
2018-08-17T05:20:34.015Z,21.50
2018-08-17T05:23:02.105Z,20.63
2018-08-17T05:25:30.177Z,21.50
2018-08-17T05:27:58.279Z,21.37
2018-08-17T05:30:26.379Z,20.80
2018-08-17T05:32:54.432Z,22.33
2018-08-17T05:35:22.628Z,22.63
2018-08-17T05:37:50.776Z,21.30
2018-08-17T05:40:18.838Z,21.07
2018-08-17T05:42:46.892Z,21.77
2018-08-17T05:45:14.939Z,22.97
2018-08-17T05:47:42.972Z,21.57
2018-08-17T05:50:11.040Z,22.27
2018-08-17T05:52:39.108Z,21.30
2018-08-17T05:55:07.262Z,22.63
2018-08-17T05:57:35.624Z,22.50
2018-08-17T06:00:04.977Z,22.90
2018-08-17T06:02:33.217Z,21.73
2018-08-17T06:05:01.303Z,21.83
2018-08-17T06:07:29.376Z,23.27
2018-08-17T06:09:57.413Z,21.30
2018-08-17T06:12:25.488Z,22.70
2018-08-17T06:14:53.515Z,22.47
2018-08-17T06:17:21.557Z,22.87
2018-08-17T06:19:49.581Z,23.50
2018-08-17T06:22:19.629Z,23.30
2018-08-17T06:24:48.328Z,24.10
2018-08-17T06:27:16.328Z,22.97
2018-08-17T06:29:44.469Z,24.20
2018-08-17T06:32:12.610Z,25.27
2018-08-17T06:34:41.516Z,22.80
2018-08-17T06:37:10.243Z,24.23
2018-08-17T06:39:38.196Z,23.57
2018-08-17T06:42:06.463Z,24.47
2018-08-17T06:44:34.564Z,23.93
2018-08-17T06:47:02.723Z,25.10
2018-08-17T06:49:30.833Z,22.70
2018-08-17T06:51:58.964Z,23.00
2018-08-17T06:54:27.056Z,23.50
2018-08-17T06:56:55.227Z,26.00
2018-08-17T06:59:23.274Z,23.70
2018-08-17T07:01:51.283Z,27.30
2018-08-17T07:04:19.319Z,26.43
2018-08-17T07:06:47.335Z,28.33
2018-08-17T07:09:15.487Z,27.60
2018-08-17T07:11:43.382Z,28.17
2018-08-17T07:14:12.336Z,28.70
2018-08-17T07:16:40.443Z,29.17
2018-08-17T07:19:08.472Z,28.70
2018-08-17T07:21:36.622Z,29.00
2018-08-17T07:24:04.796Z,27.97
2018-08-17T07:26:32.920Z,27.90
2018-08-17T07:29:01.012Z,27.90
2018-08-17T07:31:29.434Z,27.07
2018-08-17T07:33:57.519Z,26.57
2018-08-17T07:36:25.561Z,25.87
2018-08-17T07:38:53.653Z,25.20
2018-08-17T07:41:21.745Z,24.10
2018-08-17T07:43:49.784Z,24.27
2018-08-17T07:46:17.963Z,23.87
2018-08-17T07:48:46.027Z,24.40
2018-08-17T07:51:14.092Z,23.83
2018-08-17T07:53:43.093Z,22.20
2018-08-17T07:56:11.343Z,22.10
2018-08-17T07:58:39.348Z,22.30
2018-08-17T08:01:07.704Z,22.83
2018-08-17T08:03:35.802Z,20.60
2018-08-17T08:06:03.976Z,19.43
2018-08-17T08:08:32.010Z,19.40
2018-08-17T08:11:00.059Z,17.47
2018-08-17T08:13:28.197Z,16.73
2018-08-17T08:15:56.257Z,16.73
2018-08-17T08:18:24.360Z,15.70
2018-08-17T08:20:52.389Z,15.87
2018-08-17T08:23:24.544Z,13.57
2018-08-17T08:25:52.736Z,13.60
2018-08-17T08:28:21.012Z,14.00
2018-08-17T08:30:49.347Z,15.80
2018-08-17T08:33:17.992Z,14.70
2018-08-17T08:35:46.392Z,15.10
2018-08-17T08:38:14.562Z,17.67
2018-08-17T08:40:43.835Z,17.30
2018-08-17T08:43:13.866Z,16.60
2018-08-17T08:45:41.909Z,15.83
2018-08-17T08:48:10.331Z,16.57
2018-08-17T08:50:39.005Z,16.20
2018-08-17T08:53:07.817Z,16.30
2018-08-17T08:55:36.024Z,16.20
2018-08-17T08:58:04.312Z,15.20
2018-08-17T09:00:32.425Z,12.57
2018-08-17T09:03:00.551Z,10.72
2018-08-17T09:05:28.613Z,10.70
2018-08-17T09:07:57.008Z,10.83
2018-08-17T09:10:25.230Z,9.93
2018-08-17T09:12:53.260Z,10.53
2018-08-17T09:15:21.332Z,10.07
2018-08-17T09:17:49.372Z,8.87
2018-08-17T09:20:17.530Z,9.50
2018-08-17T09:22:45.649Z,9.80
2018-08-17T09:25:14.430Z,8.30
2018-08-17T09:27:42.486Z,9.53
2018-08-17T09:30:12.989Z,8.60
2018-08-17T09:32:41.214Z,8.30
2018-08-17T09:35:10.311Z,8.20
2018-08-17T09:37:38.398Z,6.80
2018-08-17T09:40:07.147Z,7.83
2018-08-17T09:42:35.189Z,7.37
2018-08-17T09:45:03.430Z,7.00
2018-08-17T09:47:31.447Z,6.57
2018-08-17T09:49:59.894Z,6.27
2018-08-17T09:52:27.891Z,7.07
2018-08-17T09:54:55.965Z,5.12
2018-08-17T09:57:24.060Z,2.80
2018-08-17T09:59:52.075Z,2.60
2018-08-17T10:02:25.048Z,2.90
2018-08-17T10:04:58.590Z,2.93
2018-08-17T10:07:32.217Z,3.20
2018-08-17T10:10:05.783Z,2.80
2018-08-17T10:12:33.872Z,2.53
2018-08-17T10:15:01.973Z,2.37
2018-08-17T10:17:30.080Z,2.67
2018-08-17T10:19:58.149Z,2.70
2018-08-17T10:22:26.216Z,2.97
2018-08-17T10:24:58.669Z,2.93
2018-08-17T10:27:26.673Z,2.77
2018-08-17T10:29:54.805Z,2.70
2018-08-17T10:32:22.812Z,2.80
2018-08-17T10:34:50.844Z,2.97
2018-08-17T10:37:18.857Z,2.93
2018-08-17T10:39:46.914Z,2.80
2018-08-17T10:42:15.570Z,2.75
2018-08-17T10:44:43.637Z,3.30
2018-08-17T10:47:12.691Z,2.93
2018-08-17T10:49:40.758Z,3.10
2018-08-17T10:52:08.790Z,2.90
2018-08-17T10:54:36.927Z,3.10
2018-08-17T10:57:05.084Z,3.07
2018-08-17T10:59:33.153Z,3.20
2018-08-17T11:02:01.202Z,3.00
2018-08-17T11:04:29.240Z,2.87
2018-08-17T11:06:57.414Z,3.37
2018-08-17T11:09:25.454Z,3.07
2018-08-17T11:11:53.607Z,3.08
2018-08-17T11:14:21.630Z,2.87
2018-08-17T11:16:49.625Z,3.37
2018-08-17T11:19:17.676Z,3.13
2018-08-17T11:21:46.180Z,3.10
2018-08-17T11:24:14.225Z,3.00
2018-08-17T11:26:42.293Z,2.98
2018-08-17T11:29:10.429Z,3.40
2018-08-17T11:31:38.615Z,3.17
2018-08-17T11:34:06.733Z,3.00
2018-08-17T11:36:34.762Z,3.30
2018-08-17T11:39:03.530Z,3.07
2018-08-17T11:41:31.719Z,3.33
2018-08-17T11:44:03.657Z,3.40
2018-08-17T11:46:37.029Z,3.47
2018-08-17T11:49:05.235Z,3.27
2018-08-17T11:51:33.404Z,3.30
2018-08-17T11:54:01.556Z,2.83
2018-08-17T11:56:29.546Z,3.47
2018-08-17T11:58:57.592Z,3.60
2018-08-17T12:01:26.715Z,3.70
2018-08-17T12:03:54.896Z,4.30
2018-08-17T12:06:22.966Z,4.07
2018-08-17T12:08:51.197Z,3.83
2018-08-17T12:11:19.343Z,4.17
2018-08-17T12:13:47.380Z,4.10
2018-08-17T12:16:15.464Z,4.10
2018-08-17T12:18:43.683Z,4.50
2018-08-17T12:21:11.600Z,4.40
2018-08-17T12:23:39.624Z,5.50
2018-08-17T12:26:07.631Z,4.67
2018-08-17T12:28:35.727Z,5.33
2018-08-17T12:31:03.809Z,5.53
2018-08-17T12:33:32.002Z,5.10
2018-08-17T12:36:00.057Z,5.50
2018-08-17T12:38:28.082Z,5.10
2018-08-17T12:40:57.328Z,4.70
2018-08-17T12:43:31.948Z,5.23
2018-08-17T12:45:59.997Z,5.47
2018-08-17T12:48:28.025Z,5.67
2018-08-17T12:51:00.411Z,4.73
2018-08-17T12:53:28.489Z,6.13
2018-08-17T12:56:10.196Z,6.60
2018-08-17T12:58:38.221Z,6.13
2018-08-17T13:01:06.180Z,6.30
2018-08-17T13:03:34.131Z,6.70
2018-08-17T13:06:03.893Z,7.20
2018-08-17T13:08:31.854Z,6.10
2018-08-17T13:11:00.156Z,6.50
2018-08-17T13:13:28.211Z,6.50
2018-08-17T13:16:01.618Z,6.60
2018-08-17T13:18:30.834Z,6.67
2018-08-17T13:20:58.832Z,5.63
2018-08-17T13:23:26.794Z,6.67
2018-08-17T13:25:54.761Z,5.93
2018-08-17T13:28:22.727Z,6.20
2018-08-17T13:30:50.676Z,5.03
2018-08-17T13:33:18.720Z,5.07
2018-08-17T13:35:46.672Z,5.63
2018-08-17T13:38:14.657Z,5.37
2018-08-17T13:40:42.631Z,6.30
2018-08-17T13:43:10.669Z,4.67
2018-08-17T13:45:38.617Z,4.20
2018-08-17T13:48:06.617Z,3.60
2018-08-17T13:50:34.585Z,3.83
2018-08-17T13:53:02.566Z,3.60
2018-08-17T13:55:30.668Z,3.10
2018-08-17T13:57:58.585Z,3.83
2018-08-17T14:00:26.540Z,3.50
2018-08-17T14:02:54.508Z,3.43
2018-08-17T14:05:22.472Z,2.83
2018-08-17T14:07:50.541Z,3.07
2018-08-17T14:10:18.732Z,3.50
2018-08-17T14:12:46.676Z,3.30
2018-08-17T14:15:14.705Z,2.97
2018-08-17T14:17:42.646Z,3.10
2018-08-17T14:20:13.433Z,2.90
2018-08-17T14:22:41.941Z,3.17
2018-08-17T14:25:10.404Z,2.80
2018-08-17T14:27:38.500Z,2.80
2018-08-17T14:30:10.947Z,2.63
2018-08-17T14:32:39.182Z,3.00
2018-08-17T14:35:07.165Z,2.90
2018-08-17T14:37:35.245Z,2.67
2018-08-17T14:40:03.232Z,2.90
2018-08-17T14:42:31.313Z,2.87
2018-08-17T14:44:59.273Z,3.10
2018-08-17T14:47:27.281Z,2.80
2018-08-17T14:49:55.454Z,2.70
2018-08-17T14:52:23.377Z,2.80
2018-08-17T14:54:51.323Z,2.70
2018-08-17T14:57:19.498Z,2.80
2018-08-17T14:59:47.473Z,2.60
2018-08-17T15:02:15.448Z,2.67
2018-08-17T15:04:43.512Z,2.70
2018-08-17T15:07:11.521Z,2.40
2018-08-17T15:09:39.468Z,2.90
2018-08-17T15:12:07.496Z,2.50
2018-08-17T15:14:35.525Z,2.30
2018-08-17T15:17:03.678Z,2.60
2018-08-17T15:19:31.611Z,2.63
2018-08-17T15:21:59.616Z,2.90
2018-08-17T15:24:27.692Z,3.00
2018-08-17T15:26:55.781Z,3.10
2018-08-17T15:29:23.748Z,2.73
2018-08-17T15:31:51.808Z,2.90
2018-08-17T15:34:20.226Z,2.60
2018-08-17T15:36:48.201Z,2.73
2018-08-17T15:39:16.143Z,2.27
2018-08-17T15:41:45.260Z,2.60
2018-08-17T15:44:18.557Z,2.50
2018-08-17T15:46:46.698Z,2.43
2018-08-17T15:49:17.522Z,2.20
2018-08-17T15:51:45.481Z,2.00
2018-08-17T15:54:13.603Z,2.77
2018-08-17T15:56:41.552Z,2.33
2018-08-17T15:59:09.526Z,2.17
2018-08-17T16:01:37.451Z,2.27
2018-08-17T16:04:05.520Z,2.50
2018-08-17T16:06:33.473Z,2.40
2018-08-17T16:09:01.453Z,2.40
2018-08-17T16:11:29.476Z,2.80
2018-08-17T16:13:57.445Z,2.50
2018-08-17T16:16:25.409Z,2.37
2018-08-17T16:18:53.373Z,2.30
2018-08-17T16:21:21.328Z,5.53
2018-08-17T16:23:49.368Z,4.50
2018-08-17T16:26:17.349Z,3.03
2018-08-17T16:28:45.291Z,2.50
2018-08-17T16:31:13.278Z,2.50
2018-08-17T16:33:41.296Z,2.30
2018-08-17T16:36:09.252Z,2.60
2018-08-17T16:38:38.084Z,2.50
2018-08-17T16:41:06.460Z,2.53
2018-08-17T16:43:41.837Z,2.60
2018-08-17T16:46:09.900Z,3.17
2018-08-17T16:48:38.515Z,3.20
2018-08-17T16:51:06.472Z,3.40
2018-08-17T16:53:34.471Z,3.57
2018-08-17T16:56:02.558Z,3.30
2018-08-17T16:58:30.552Z,3.30
2018-08-17T17:00:58.663Z,3.40
2018-08-17T17:03:26.588Z,4.03
2018-08-17T17:06:00.092Z,3.70
2018-08-17T17:08:28.414Z,4.47
2018-08-17T17:10:56.477Z,5.50
2018-08-17T17:13:24.755Z,5.07
2018-08-17T17:15:52.707Z,5.17
2018-08-17T17:18:20.635Z,4.87
2018-08-17T17:20:48.620Z,4.70
2018-08-17T17:23:16.595Z,4.70
2018-08-17T17:25:44.590Z,4.90
2018-08-17T17:28:12.657Z,5.60
2018-08-17T17:30:46.209Z,4.73
2018-08-17T17:33:14.177Z,5.40
2018-08-17T17:35:43.049Z,5.53
2018-08-17T17:38:11.539Z,5.37
2018-08-17T17:40:40.032Z,5.92
2018-08-17T17:43:08.280Z,5.37
2018-08-17T17:45:36.862Z,4.80
2018-08-17T17:48:05.014Z,4.83
2018-08-17T17:50:33.076Z,5.13
2018-08-17T17:53:02.088Z,4.80
2018-08-17T17:55:35.272Z,4.77
2018-08-17T17:58:03.254Z,4.40
2018-08-17T18:00:31.288Z,4.10
2018-08-17T18:02:59.238Z,4.30
2018-08-17T18:05:27.199Z,4.10
2018-08-17T18:07:58.680Z,4.40
2018-08-17T18:10:26.680Z,4.60
2018-08-17T18:12:54.690Z,4.20
2018-08-17T18:15:22.838Z,4.13
2018-08-17T18:17:50.822Z,4.57
2018-08-17T18:20:18.880Z,5.10
2018-08-17T18:22:46.876Z,4.70
2018-08-17T18:25:17.719Z,4.70
2018-08-17T18:27:46.068Z,5.10
2018-08-17T18:30:14.227Z,5.00
2018-08-17T18:32:42.276Z,4.53
2018-08-17T18:35:10.399Z,5.37
2018-08-17T18:37:38.462Z,5.10
2018-08-17T18:40:07.760Z,5.55
2018-08-17T18:42:35.955Z,4.73
2018-08-17T18:45:04.085Z,5.30
2018-08-17T18:47:32.068Z,5.27
2018-08-17T18:50:00.041Z,6.00
2018-08-17T18:52:28.088Z,6.00
2018-08-17T18:54:56.060Z,5.97
2018-08-17T18:57:24.166Z,6.17
2018-08-17T18:59:52.236Z,6.27
2018-08-17T19:02:20.189Z,6.33
2018-08-17T19:04:48.299Z,5.67
2018-08-17T19:07:16.254Z,5.90
2018-08-17T19:09:44.663Z,6.00
2018-08-17T19:12:12.957Z,6.00
2018-08-17T19:14:43.952Z,5.70
2018-08-17T19:17:17.458Z,6.03
2018-08-17T19:19:45.412Z,6.00
2018-08-17T19:22:13.475Z,5.97
2018-08-17T19:24:41.556Z,6.63
2018-08-17T19:27:14.280Z,5.67
2018-08-17T19:29:42.241Z,6.07
2018-08-17T19:32:10.216Z,6.43
2018-08-17T19:34:38.134Z,5.70
2018-08-17T19:37:06.157Z,6.43
2018-08-17T19:39:34.380Z,6.73
2018-08-17T19:42:02.863Z,5.80
2018-08-17T19:44:30.860Z,5.67
2018-08-17T19:46:58.875Z,6.10
2018-08-17T19:49:26.845Z,6.40
2018-08-17T19:51:54.884Z,6.47
2018-08-17T19:54:22.864Z,6.03
2018-08-17T19:56:50.949Z,5.80
2018-08-17T19:59:18.932Z,6.90
2018-08-17T20:01:46.919Z,6.20
2018-08-17T20:04:14.879Z,6.70
2018-08-17T20:06:42.863Z,7.37
2018-08-17T20:09:11.472Z,7.27
2018-08-17T20:11:39.434Z,6.53
2018-08-17T20:14:07.384Z,6.80
2018-08-17T20:16:35.351Z,7.57
2018-08-17T20:19:03.381Z,7.47
2018-08-17T20:21:31.314Z,7.70
2018-08-17T20:23:59.261Z,8.13
2018-08-17T20:26:27.423Z,6.87
2018-08-17T20:28:55.211Z,7.87
2018-08-17T20:31:23.640Z,8.70
2018-08-17T20:33:51.904Z,8.57
2018-08-17T20:36:21.907Z,8.67
2018-08-17T20:38:50.101Z,8.67
2018-08-17T20:41:22.959Z,8.10
2018-08-17T20:43:50.907Z,8.13
2018-08-17T20:46:18.968Z,10.40
2018-08-17T20:48:48.089Z,9.50
2018-08-17T20:51:21.662Z,8.93
2018-08-17T20:53:54.277Z,9.50
2018-08-17T20:56:22.465Z,9.47
2018-08-17T20:58:50.412Z,10.60
2018-08-17T21:01:18.359Z,9.23
2018-08-17T21:03:46.414Z,10.00
2018-08-17T21:06:14.393Z,11.30
2018-08-17T21:08:42.337Z,10.70
2018-08-17T21:11:10.285Z,11.07
2018-08-17T21:13:38.236Z,10.80
2018-08-17T21:16:06.313Z,9.90
2018-08-17T21:18:34.268Z,10.30
2018-08-17T21:21:02.275Z,11.20
2018-08-17T21:23:30.324Z,9.57
2018-08-17T21:25:58.360Z,10.83
2018-08-17T21:28:26.387Z,10.30
2018-08-17T21:30:54.340Z,11.47
2018-08-17T21:33:22.280Z,9.70
2018-08-17T21:35:50.245Z,10.17
2018-08-17T21:38:18.225Z,10.07
2018-08-17T21:40:46.232Z,11.22
2018-08-17T21:43:14.198Z,10.90
2018-08-17T21:45:44.640Z,10.87
2018-08-17T21:48:17.946Z,10.60
2018-08-17T21:50:45.940Z,11.07
2018-08-17T21:53:14.082Z,11.20
2018-08-17T21:55:42.107Z,11.07
2018-08-17T21:58:10.163Z,11.67
2018-08-17T22:00:38.169Z,11.40
2018-08-17T22:03:16.099Z,10.80
2018-08-17T22:05:44.143Z,11.37
2018-08-17T22:08:12.136Z,11.40
2018-08-17T22:10:40.092Z,11.83
2018-08-17T22:13:18.288Z,12.07
2018-08-17T22:15:46.252Z,11.80
2018-08-17T22:18:14.212Z,11.70
2018-08-17T22:20:42.184Z,11.83
2018-08-17T22:23:10.168Z,12.77
2018-08-17T22:25:38.116Z,13.27
2018-08-17T22:28:06.139Z,12.40
2018-08-17T22:30:34.088Z,12.87
2018-08-17T22:33:02.096Z,12.40
2018-08-17T22:35:30.181Z,12.30
2018-08-17T22:37:58.042Z,12.00
2018-08-17T22:40:27.408Z,11.40
2018-08-17T22:42:55.452Z,11.37
2018-08-17T22:45:23.407Z,12.50
2018-08-17T22:47:51.440Z,12.30
2018-08-17T22:50:19.359Z,10.90
2018-08-17T22:52:47.311Z,11.80
2018-08-17T22:55:15.378Z,11.90
2018-08-17T22:57:43.336Z,12.17
2018-08-17T23:00:20.536Z,11.23
2018-08-17T23:02:49.756Z,12.20
2018-08-17T23:05:19.167Z,11.43
2018-08-17T23:07:47.153Z,12.13
2018-08-17T23:10:21.066Z,12.03
2018-08-17T23:12:50.184Z,12.37
2018-08-17T23:15:18.168Z,13.00
2018-08-17T23:17:48.812Z,12.53
2018-08-17T23:20:21.027Z,11.73
2018-08-17T23:22:50.907Z,12.00
2018-08-17T23:25:18.992Z,12.10
2018-08-17T23:27:47.898Z,13.33
2018-08-17T23:30:15.864Z,13.20
2018-08-17T23:32:44.523Z,12.70
2018-08-17T23:35:12.544Z,12.53
2018-08-17T23:37:40.483Z,12.30
2018-08-17T23:40:09.135Z,12.73
2018-08-17T23:42:37.231Z,12.00
2018-08-17T23:45:06.840Z,12.77
2018-08-17T23:47:35.233Z,12.40
2018-08-17T23:50:03.241Z,12.50
2018-08-17T23:52:31.212Z,12.20
2018-08-17T23:54:59.284Z,13.40
2018-08-17T23:57:28.000Z,12.98
2018-08-17T23:59:56.480Z,11.90
